Latest Weather Observations for Bradshaw

IDD60801

Issued at 3:35 pm CST Monday 28 July 2014 (issued every 30 minutes, with the page automatically refreshed every 10 minutes)

About weather observations | Map of weather stations | Latest weather observations for NT | Other Formats
Station Details ID: 014954 Name: BRADSHAW Lat: -14.94 Lon: 130.81 Height: 75.0 m
Data from the previous 72 hours. | See also: Recent months at Bradshaw
Date/Time
CST
Temp
°C
App
Temp
°C
Dew
Point
Rel
Hum
%
Delta-T
°C
Wind Press
QNH
hPa
Press
MSL
hPa
Rain
since 9 am
mm
Dir
 
Spd
km/h
Gust
km/h
Spd
kts
Gust
kts
28/03:30pm 33.3 30.0 8.0 21 14.1 E 15 24 8 13 1013.9 - 0.0
28/03:00pm 33.7 29.3 7.6 20 14.5 ESE 20 37 11 20 1014.2 1013.9 0.0
28/02:30pm 33.4 29.0 8.8 22 13.9 E 22 35 12 19 1014.8 - 0.0
28/02:00pm 33.5 29.2 9.5 23 13.7 ESE 22 35 12 19 1015.3 - 0.0
28/01:30pm 32.8 29.1 10.2 25 13.0 E 20 30 11 16 1015.8 - 0.0
28/01:00pm 32.1 27.8 10.7 27 12.4 ENE 24 39 13 21 1016.3 - 0.0
28/12:30pm 32.2 27.5 10.8 27 12.4 ENE 26 41 14 22 1016.8 - 0.0
28/12:00pm 31.5 26.1 10.8 28 11.9 ENE 30 43 16 23 1017.6 1017.4 0.0
28/11:30am 31.2 27.8 11.1 29 11.7 E 20 32 11 17 1018.2 - 0.0
28/11:00am 30.6 27.8 12.5 33 10.7 E 19 26 10 14 1018.6 - 0.0
28/10:30am 29.6 26.2 12.5 35 10.1 E 22 33 12 18 1018.8 - 0.0
28/10:00am 29.0 27.5 13.2 37 9.4 E 13 20 7 11 1019.1 - 0.0
28/09:30am 27.5 25.5 13.8 43 8.2 ENE 17 28 9 15 1019.3 - 0.0
28/09:00am 26.3 25.4 13.8 46 7.4 E 11 17 6 9 1019.1 1018.9 0.0
28/08:30am 24.5 25.6 13.4 50 6.5 CALM 0 0 0 0 1019.0 - 0.0
28/08:00am 21.9 22.7 12.5 55 5.3 CALM 0 0 0 0 1018.6 - 0.0
28/07:30am 18.6 19.0 11.2 62 4.0 CALM 0 0 0 0 1018.3 - 0.0
28/07:00am 18.5 18.6 10.1 58 4.5 CALM 0 0 0 0 1018.0 - 0.0
28/06:30am 19.0 18.4 10.3 57 4.7 NW 4 7 2 4 1017.6 - 0.0
28/06:00am 20.5 20.6 10.0 51 5.7 CALM 0 0 0 0 1017.2 1017.0 0.0
28/05:30am 20.5 20.0 10.6 53 5.4 NW 4 9 2 5 1017.0 - 0.0
28/05:00am 20.5 20.6 10.0 51 5.7 CALM 0 0 0 0 1016.8 - 0.0
28/04:30am 21.8 21.3 9.3 45 6.7 SE 2 7 1 4 1016.6 - 0.0
28/04:00am 24.4 22.7 9.9 40 8.0 E 9 13 5 7 1016.6 - 0.0
28/03:30am 25.1 22.9 9.4 37 8.6 ESE 11 15 6 8 1016.5 - 0.0
28/03:00am 25.5 23.2 8.9 35 9.0 SE 11 17 6 9 1016.8 1016.6 0.0
28/02:30am 26.8 25.0 9.6 34 9.5 ESE 9 13 5 7 1016.8 - 0.0
28/02:00am 26.6 25.0 10.3 36 9.1 E 9 13 5 7 1016.8 - 0.0
28/01:30am 26.6 25.6 11.1 38 8.8 E 7 11 4 6 1016.9 - 0.0
28/01:00am 24.8 25.2 12.4 46 7.1 NNE 2 7 1 4 1016.9 - 0.0
28/12:30am 24.9 25.3 12.5 46 7.2 NNE 2 7 1 4 1017.0 - 0.0
28/12:00am 24.3 24.4 12.6 48 6.7 NNE 4 7 2 4 1017.1 1016.9 0.0
 
Date/Time
CST
Temp
°C
App
Temp
°C
Dew
Point
Rel
Hum
%
Delta-T
°C
Wind Press
QNH
hPa
Press
MSL
hPa
Rain
since 9 am
mm
Dir
 
Spd
km/h
Gust
km/h
Spd
kts
Gust
kts
27/11:30pm 24.7 24.2 12.0 45 7.3 N 6 7 3 4 1017.1 - 0.0
27/11:00pm 24.9 25.6 12.2 45 7.3 CALM 0 4 0 2 1017.2 - 0.0
27/10:30pm 26.3 25.1 11.6 40 8.4 NE 9 11 5 6 1017.3 - 0.0
27/10:00pm 26.7 25.3 10.8 37 9.0 NE 9 11 5 6 1017.1 - 0.0
27/09:30pm 27.0 25.5 10.7 36 9.2 NE 9 9 5 5 1017.0 - 0.0
27/09:00pm 28.2 26.8 10.9 34 9.9 E 9 11 5 6 1016.8 1016.6 0.0
27/08:30pm 28.4 26.9 10.6 33 10.1 E 9 11 5 6 1016.6 - 0.0
27/08:00pm 28.7 27.2 10.4 32 10.4 E 9 9 5 5 1016.2 - 0.0
27/07:30pm 29.6 28.0 10.2 30 11.0 E 9 13 5 7 1015.8 - 0.0
27/07:00pm 30.4 28.1 10.4 29 11.4 ESE 13 17 7 9 1015.3 - 0.0
27/06:30pm 31.0 27.2 9.8 27 12.0 ESE 20 30 11 16 1014.9 - 0.0
27/06:00pm 32.4 29.6 9.9 25 12.9 E 15 24 8 13 1014.6 1014.3 0.0
27/05:30pm 33.0 30.0 9.1 23 13.5 E 15 20 8 11 1014.3 - 0.0
27/05:00pm 32.7 28.1 9.5 24 13.2 E 24 35 13 19 1014.4 - 0.0
27/04:30pm 33.3 30.0 9.4 23 13.6 ENE 17 24 9 13 1014.3 - 0.0
27/04:00pm 33.7 31.6 9.7 23 13.8 E 11 20 6 11 1014.3 - 0.0
27/03:30pm 32.3 27.8 8.5 23 13.3 E 22 35 12 19 1014.7 - 0.0
27/03:00pm 33.8 29.6 9.8 23 13.8 E 22 35 12 19 1014.9 1014.7 0.0
27/02:30pm 31.7 27.9 9.8 26 12.5 ENE 20 28 11 15 1015.3 - 0.0
27/02:00pm 33.7 28.7 9.7 23 13.8 ENE 26 41 14 22 1015.9 - 0.0
27/01:30pm 32.7 27.5 10.1 25 13.0 E 28 44 15 24 1016.6 - 0.0
27/01:00pm 32.4 27.8 11.0 27 12.5 E 26 39 14 21 1017.2 - 0.0
27/12:30pm 32.0 28.0 11.7 28 11.9 E 24 39 13 21 1017.9 - 0.0
27/12:00pm 31.5 27.9 11.8 30 11.5 ESE 22 43 12 23 1018.5 1018.3 0.0
27/11:30am 31.1 29.4 12.5 32 11.0 E 13 26 7 14 1019.1 - 0.0
27/11:00am 30.0 27.7 12.9 35 10.2 ESE 17 28 9 15 1019.5 - 0.0
27/10:30am 29.8 27.0 12.7 35 10.1 E 19 28 10 15 1019.9 - 0.0
27/10:00am 28.5 26.3 13.2 39 9.1 E 17 26 9 14 1019.9 - 0.0
27/09:30am 27.8 27.4 15.1 46 7.7 NNE 11 19 6 10 1019.7 - 0.0
27/09:00am 26.2 26.7 15.6 52 6.5 NE 7 11 4 6 1019.6 1019.4 0.0
27/08:30am 24.0 25.3 15.2 58 5.3 ENE 2 6 1 3 1019.5 - 0.0
27/08:00am 23.5 23.6 15.5 60 4.8 NNE 9 11 5 6 1019.2 - 0.0
27/07:30am 22.5 22.9 15.4 64 4.3 N 7 9 4 5 1019.0 - 0.0
27/07:00am 21.2 21.4 14.8 67 3.8 NNW 7 9 4 5 1018.6 - 0.0
27/06:30am 20.7 22.3 15.0 70 3.4 CALM 0 0 0 0 1018.4 - 0.0
27/06:00am 20.2 21.6 14.3 69 3.4 CALM 0 4 0 2 1018.1 1017.9 0.0
27/05:30am 20.2 21.3 14.6 70 3.3 ESE 2 7 1 4 1018.0 - 0.0
27/05:00am 21.0 21.5 13.9 64 4.1 W 4 7 2 4 1017.8 - 0.0
27/04:30am 21.0 22.1 13.4 62 4.4 CALM 0 0 0 0 1017.6 - 0.0
27/04:00am 23.2 23.3 14.5 58 5.2 ESE 7 11 4 6 1017.5 - 0.0
27/03:30am 23.7 23.3 14.1 55 5.7 ESE 9 11 5 6 1017.6 - 0.0
27/03:00am 24.5 23.3 14.0 52 6.2 E 13 20 7 11 1017.5 1017.3 0.0
27/02:30am 25.4 23.0 13.9 49 6.8 ENE 19 28 10 15 1017.5 - 0.0
27/02:00am 25.8 22.3 13.3 46 7.3 ENE 24 37 13 20 1017.7 - 0.0
27/01:30am 26.2 22.6 13.0 44 7.7 ENE 24 33 13 18 1017.8 - 0.0
27/01:00am 25.7 23.5 10.7 39 8.4 E 13 19 7 10 1018.1 - 0.0
27/12:30am 26.3 24.5 9.6 35 9.2 E 9 13 5 7 1018.1 - 0.0
27/12:00am 27.2 25.3 9.1 32 10.0 E 9 13 5 7 1018.1 1017.9 0.0
 
Date/Time
CST
Temp
°C
App
Temp
°C
Dew
Point
Rel
Hum
%
Delta-T
°C
Wind Press
QNH
hPa
Press
MSL
hPa
Rain
since 9 am
mm
Dir
 
Spd
km/h
Gust
km/h
Spd
kts
Gust
kts
26/11:30pm 27.9 25.5 8.7 30 10.5 E 11 19 6 10 1018.1 - 0.0
26/11:00pm 28.4 25.6 8.7 29 10.8 E 13 19 7 10 1018.0 - 0.0
26/10:30pm 28.9 25.6 8.0 27 11.4 E 15 26 8 14 1018.1 - 0.0
26/10:00pm 28.4 25.4 7.6 27 11.2 E 13 15 7 8 1018.0 - 0.0
26/09:30pm 27.7 25.8 7.5 28 10.9 NE 7 9 4 5 1017.8 - 0.0
26/09:00pm 28.3 26.4 7.5 27 11.2 E 7 9 4 5 1017.8 1017.6 0.0
26/08:30pm 28.8 26.9 7.4 26 11.6 ENE 7 9 4 5 1017.5 - 0.0
26/08:00pm 29.3 27.3 7.2 25 11.9 E 7 9 4 5 1017.0 - 0.0
26/07:30pm 29.6 27.2 6.9 24 12.2 E 9 11 5 6 1016.8 - 0.0
26/07:00pm 29.8 27.3 6.5 23 12.5 E 9 11 5 6 1016.6 - 0.0
26/06:30pm 30.6 26.8 5.8 21 13.2 E 15 22 8 12 1016.3 - 0.0
26/06:00pm 31.7 27.9 6.0 20 13.8 E 15 22 8 12 1015.8 1015.6 0.0
26/05:30pm 32.4 27.6 5.8 19 14.3 E 20 37 11 20 1015.6 - 0.0
26/05:00pm 32.6 27.1 6.0 19 14.3 SE 24 37 13 20 1015.3 - 0.0
26/04:30pm 33.0 28.4 6.3 19 14.5 ESE 20 33 11 18 1015.4 - 0.0
26/04:00pm 33.4 28.1 6.6 19 14.6 E 24 39 13 21 1015.5 - 0.0
26/03:30pm 33.3 28.2 5.8 18 14.8 E 22 35 12 19 1015.7 - 0.0
26/03:00pm 33.3 29.3 6.6 19 14.6 E 17 30 9 16 1015.6 1015.4 0.0
26/02:30pm 32.2 27.3 7.1 21 13.7 ESE 22 35 12 19 1016.0 - 0.0
26/02:00pm 33.2 28.1 9.3 23 13.6 ESE 26 35 14 19 1016.4 - 0.0
26/01:30pm 32.0 28.5 8.9 24 13.0 E 17 37 9 20 1016.9 - 0.0
26/01:00pm 32.2 28.4 9.7 25 12.8 E 20 35 11 19 1017.4 - 0.0
26/12:30pm 31.4 26.2 10.2 27 12.1 ESE 28 39 15 21 1018.1 - 0.0
26/12:00pm 31.0 27.3 11.4 30 11.4 E 22 41 12 22 1018.6 1018.4 0.0
26/11:30am 30.5 26.8 11.5 31 11.1 E 22 32 12 17 1019.1 - 0.0
26/11:00am 29.4 26.9 12.3 34 10.0 E 17 28 9 15 1019.5 - 0.0
26/10:30am 28.6 26.0 13.3 39 9.1 ENE 19 26 10 14 1019.8 - 0.0
26/10:00am 27.3 24.6 12.9 41 8.5 NE 19 24 10 13 1019.8 - 0.0
26/09:30am 26.7 25.4 12.4 41 8.3 ENE 11 15 6 8 1019.8 - 0.0
26/09:00am 24.6 24.7 10.1 40 8.0 CALM 0 0 0 0 1019.8 1019.6 0.0
26/08:30am 22.7 22.8 10.2 45 6.9 CALM 0 4 0 2 1019.5 - 0.0
26/08:00am 19.8 18.6 10.2 54 5.2 N 7 9 4 5 1019.1 - 0.0
26/07:30am 16.1 15.3 8.3 60 4.0 NNW 2 7 1 4 1019.0 - 0.0
26/07:00am 16.9 15.2 8.3 57 4.4 NNW 7 11 4 6 1018.8 - 0.0
26/06:30am 16.8 15.4 9.0 60 4.0 NW 6 9 3 5 1018.5 - 0.0
26/06:00am 18.0 16.6 8.8 55 4.8 NNW 6 7 3 4 1018.1 1017.9 0.0
26/05:30am 18.6 17.8 8.0 50 5.4 N 2 7 1 4 1017.9 - 0.0
26/05:00am 20.7 20.4 8.7 46 6.3 CALM 0 0 0 0 1017.7 - 0.0
26/04:30am 21.6 19.9 8.5 43 6.9 NNW 7 11 4 6 1017.7 - 0.0
26/04:00am 21.6 20.0 8.1 42 7.1 W 6 13 3 7 1017.6 - 0.0
26/03:30am 21.4 19.8 8.7 44 6.7 W 7 11 4 6 1017.4 - 0.0
26/03:00am 20.7 19.8 9.3 48 6.1 E 4 7 2 4 1017.7 1017.5 0.0
26/02:30am 20.2 20.1 9.5 50 5.7 CALM 0 0 0 0 1017.3 - 0.0
26/02:00am 20.2 18.7 8.5 47 6.1 NNW 6 7 3 4 1017.4 - 0.0
26/01:30am 22.4 21.7 8.5 41 7.4 N 2 7 1 4 1017.6 - 0.0
26/01:00am 23.6 22.4 9.6 41 7.6 NNE 6 7 3 4 1017.7 - 0.0
26/12:30am 23.4 23.0 9.8 42 7.4 NE 2 6 1 3 1017.6 - 0.0
26/12:00am 21.9 21.8 9.4 45 6.7 CALM 0 0 0 0 1017.5 1017.3 0.0
 
Date/Time
CST
Temp
°C
App
Temp
°C
Dew
Point
Rel
Hum
%
Delta-T
°C
Wind Press
QNH
hPa
Press
MSL
hPa
Rain
since 9 am
mm
Dir
 
Spd
km/h
Gust
km/h
Spd
kts
Gust
kts
25/11:30pm 23.5 21.9 8.8 39 7.9 NNE 7 11 4 6 1017.7 - 0.0
25/11:00pm 23.4 22.0 8.7 39 7.9 SW 6 17 3 9 1017.7 - 0.0
25/10:30pm 24.6 23.1 9.0 37 8.5 NNW 7 7 4 4 1017.5 - 0.0
25/10:00pm 23.6 22.1 8.5 38 8.1 WNW 6 9 3 5 1017.5 - 0.0
25/09:30pm 22.5 21.7 8.2 40 7.6 NE 2 9 1 5 1017.3 - 0.0
25/09:00pm 23.2 22.7 7.7 37 8.1 CALM 0 6 0 3 1017.0 1016.8 0.0
25/08:30pm 25.9 24.2 8.4 33 9.5 ENE 7 9 4 5 1016.6 - 0.0
25/08:00pm 25.5 23.7 8.1 33 9.3 ENE 7 9 4 5 1016.2 - 0.0
25/07:30pm 26.5 24.5 7.0 29 10.3 ENE 7 7 4 4 1015.6 - 0.0
25/07:00pm 28.5 25.7 7.1 26 11.5 E 11 13 6 7 1015.3 - 0.0
25/06:30pm 29.9 27.5 7.2 24 12.3 ENE 9 13 5 7 1015.0 - 0.0
25/06:00pm 31.7 29.2 6.7 21 13.5 E 9 15 5 8 1014.7 1014.4 0.0
25/05:30pm 32.7 29.9 6.8 20 14.1 ENE 11 17 6 9 1014.5 - 0.0
25/05:00pm 33.2 30.8 7.2 20 14.3 ENE 9 15 5 8 1014.2 - 0.0
25/04:30pm 33.8 31.8 7.0 19 14.8 NNE 7 17 4 9 1014.1 - 0.0
25/04:00pm 33.5 31.0 6.7 19 14.7 ENE 9 17 5 9 1014.2 - 0.0

Other Formats:

Comma delimited format used in spreadsheet applications
http://www.bom.gov.au/fwo/IDD60801/IDD60801.94130.axf

JavaScript Object Notation format (JSON) in row-major order
http://www.bom.gov.au/fwo/IDD60801/IDD60801.94130.json